sensor_id;sensor_type;location;lat;lon;timestamp;P1;durP1;ratioP1;P2;durP2;ratioP2
75320;SDS011;68337;52.196;5.660;2023-05-07T00:01:45;5.35;;;4.85;;
75320;SDS011;68337;52.196;5.660;2023-05-07T00:04:11;5.10;;;4.43;;
75320;SDS011;68337;52.196;5.660;2023-05-07T00:06:38;5.03;;;4.63;;
75320;SDS011;68337;52.196;5.660;2023-05-07T00:09:04;6.38;;;4.72;;
75320;SDS011;68337;52.196;5.660;2023-05-07T00:11:31;5.18;;;4.75;;
75320;SDS011;68337;52.196;5.660;2023-05-07T00:13:57;5.15;;;4.50;;
75320;SDS011;68337;52.196;5.660;2023-05-07T00:16:23;8.80;;;4.70;;
75320;SDS011;68337;52.196;5.660;2023-05-07T00:18:49;5.22;;;4.72;;
75320;SDS011;68337;52.196;5.660;2023-05-07T00:21:15;5.18;;;4.68;;
75320;SDS011;68337;52.196;5.660;2023-05-07T00:23:41;6.25;;;4.78;;
75320;SDS011;68337;52.196;5.660;2023-05-07T00:26:07;5.18;;;4.78;;
75320;SDS011;68337;52.196;5.660;2023-05-07T00:28:32;5.13;;;4.72;;
75320;SDS011;68337;52.196;5.660;2023-05-07T00:30:59;6.43;;;4.90;;
75320;SDS011;68337;52.196;5.660;2023-05-07T00:33:24;6.22;;;4.72;;
75320;SDS011;68337;52.196;5.660;2023-05-07T00:35:51;7.45;;;5.45;;
75320;SDS011;68337;52.196;5.660;2023-05-07T00:38:19;7.80;;;5.40;;
75320;SDS011;68337;52.196;5.660;2023-05-07T00:40:44;5.05;;;4.63;;
75320;SDS011;68337;52.196;5.660;2023-05-07T00:43:10;4.68;;;4.25;;
75320;SDS011;68337;52.196;5.660;2023-05-07T00:45:37;8.05;;;5.90;;
75320;SDS011;68337;52.196;5.660;2023-05-07T00:48:03;9.98;;;5.40;;
75320;SDS011;68337;52.196;5.660;2023-05-07T00:50:30;8.18;;;5.03;;
75320;SDS011;68337;52.196;5.660;2023-05-07T00:52:56;5.25;;;4.85;;
75320;SDS011;68337;52.196;5.660;2023-05-07T00:55:22;5.30;;;4.80;;
75320;SDS011;68337;52.196;5.660;2023-05-07T00:57:49;6.43;;;5.07;;
75320;SDS011;68337;52.196;5.660;2023-05-07T01:00:16;9.80;;;5.40;;
75320;SDS011;68337;52.196;5.660;2023-05-07T01:02:43;5.28;;;4.90;;
75320;SDS011;68337;52.196;5.660;2023-05-07T01:05:11;6.25;;;5.57;;
75320;SDS011;68337;52.196;5.660;2023-05-07T01:07:40;5.47;;;4.97;;
75320;SDS011;68337;52.196;5.660;2023-05-07T01:10:07;6.00;;;5.40;;
75320;SDS011;68337;52.196;5.660;2023-05-07T01:12:35;5.45;;;4.57;;
75320;SDS011;68337;52.196;5.660;2023-05-07T01:15:02;5.60;;;5.10;;
75320;SDS011;68337;52.196;5.660;2023-05-07T01:17:29;5.93;;;5.47;;
75320;SDS011;68337;52.196;5.660;2023-05-07T01:20:02;7.03;;;5.82;;
75320;SDS011;68337;52.196;5.660;2023-05-07T01:22:30;5.38;;;4.88;;
75320;SDS011;68337;52.196;5.660;2023-05-07T01:24:58;7.45;;;5.63;;
75320;SDS011;68337;52.196;5.660;2023-05-07T01:27:24;6.43;;;5.80;;
75320;SDS011;68337;52.196;5.660;2023-05-07T01:29:50;6.43;;;5.40;;
75320;SDS011;68337;52.196;5.660;2023-05-07T01:32:16;6.55;;;5.75;;
75320;SDS011;68337;52.196;5.660;2023-05-07T01:34:46;6.78;;;5.65;;
75320;SDS011;68337;52.196;5.660;2023-05-07T01:37:15;7.28;;;6.57;;
75320;SDS011;68337;52.196;5.660;2023-05-07T01:39:42;6.00;;;5.50;;
75320;SDS011;68337;52.196;5.660;2023-05-07T01:42:08;6.70;;;6.10;;
75320;SDS011;68337;52.196;5.660;2023-05-07T01:44:34;7.13;;;6.47;;
75320;SDS011;68337;52.196;5.660;2023-05-07T01:46:59;6.78;;;5.80;;
75320;SDS011;68337;52.196;5.660;2023-05-07T01:49:27;7.40;;;6.63;;
75320;SDS011;68337;52.196;5.660;2023-05-07T01:51:52;6.85;;;6.18;;
75320;SDS011;68337;52.196;5.660;2023-05-07T01:54:18;6.90;;;6.30;;
75320;SDS011;68337;52.196;5.660;2023-05-07T01:56:45;8.35;;;6.95;;
75320;SDS011;68337;52.196;5.660;2023-05-07T01:59:13;7.03;;;6.43;;
75320;SDS011;68337;52.196;5.660;2023-05-07T02:01:38;7.18;;;6.68;;
75320;SDS011;68337;52.196;5.660;2023-05-07T02:04:04;7.70;;;6.53;;
75320;SDS011;68337;52.196;5.660;2023-05-07T02:06:30;7.13;;;6.43;;
75320;SDS011;68337;52.196;5.660;2023-05-07T02:08:56;7.53;;;6.82;;
75320;SDS011;68337;52.196;5.660;2023-05-07T02:11:21;7.10;;;6.50;;
75320;SDS011;68337;52.196;5.660;2023-05-07T02:13:47;7.97;;;6.32;;
75320;SDS011;68337;52.196;5.660;2023-05-07T02:16:13;7.28;;;6.57;;
75320;SDS011;68337;52.196;5.660;2023-05-07T02:18:39;7.18;;;6.65;;
75320;SDS011;68337;52.196;5.660;2023-05-07T02:21:05;7.43;;;6.55;;
75320;SDS011;68337;52.196;5.660;2023-05-07T02:23:30;7.90;;;7.10;;
75320;SDS011;68337;52.196;5.660;2023-05-07T02:25:56;7.47;;;6.88;;
75320;SDS011;68337;52.196;5.660;2023-05-07T02:28:22;8.23;;;7.43;;
75320;SDS011;68337;52.196;5.660;2023-05-07T02:30:47;7.50;;;6.80;;
75320;SDS011;68337;52.196;5.660;2023-05-07T02:33:13;8.18;;;7.45;;
75320;SDS011;68337;52.196;5.660;2023-05-07T02:35:39;7.97;;;7.13;;
75320;SDS011;68337;52.196;5.660;2023-05-07T02:38:05;8.68;;;7.95;;
75320;SDS011;68337;52.196;5.660;2023-05-07T02:40:30;8.30;;;7.30;;
75320;SDS011;68337;52.196;5.660;2023-05-07T02:42:58;10.82;;;7.65;;
75320;SDS011;68337;52.196;5.660;2023-05-07T02:45:24;10.15;;;8.85;;
75320;SDS011;68337;52.196;5.660;2023-05-07T02:47:50;10.43;;;9.32;;
75320;SDS011;68337;52.196;5.660;2023-05-07T02:50:16;12.05;;;9.88;;
75320;SDS011;68337;52.196;5.660;2023-05-07T02:52:42;9.40;;;8.50;;
75320;SDS011;68337;52.196;5.660;2023-05-07T02:55:08;10.20;;;8.38;;
75320;SDS011;68337;52.196;5.660;2023-05-07T02:57:33;10.23;;;9.20;;
75320;SDS011;68337;52.196;5.660;2023-05-07T02:59:59;9.10;;;8.02;;
75320;SDS011;68337;52.196;5.660;2023-05-07T03:02:34;8.90;;;8.15;;
75320;SDS011;68337;52.196;5.660;2023-05-07T03:05:00;11.05;;;9.10;;
75320;SDS011;68337;52.196;5.660;2023-05-07T03:07:26;10.45;;;9.45;;
75320;SDS011;68337;52.196;5.660;2023-05-07T03:09:52;11.07;;;10.05;;
75320;SDS011;68337;52.196;5.660;2023-05-07T03:12:18;10.80;;;8.52;;
75320;SDS011;68337;52.196;5.660;2023-05-07T03:14:44;10.30;;;9.30;;
75320;SDS011;68337;52.196;5.660;2023-05-07T03:17:10;11.85;;;10.13;;
75320;SDS011;68337;52.196;5.660;2023-05-07T03:19:35;9.82;;;8.93;;
75320;SDS011;68337;52.196;5.660;2023-05-07T03:22:01;11.07;;;9.98;;
75320;SDS011;68337;52.196;5.660;2023-05-07T03:24:27;12.88;;;9.20;;
75320;SDS011;68337;52.196;5.660;2023-05-07T03:26:52;11.10;;;10.00;;
75320;SDS011;68337;52.196;5.660;2023-05-07T03:29:18;10.70;;;9.57;;
75320;SDS011;68337;52.196;5.660;2023-05-07T03:31:44;12.25;;;10.98;;
75320;SDS011;68337;52.196;5.660;2023-05-07T03:34:10;10.95;;;9.85;;
75320;SDS011;68337;52.196;5.660;2023-05-07T03:36:36;11.95;;;10.30;;
75320;SDS011;68337;52.196;5.660;2023-05-07T03:39:01;11.75;;;10.68;;
75320;SDS011;68337;52.196;5.660;2023-05-07T03:41:27;11.35;;;10.27;;
75320;SDS011;68337;52.196;5.660;2023-05-07T03:43:54;11.60;;;10.43;;
75320;SDS011;68337;52.196;5.660;2023-05-07T03:46:20;13.38;;;11.52;;
75320;SDS011;68337;52.196;5.660;2023-05-07T03:48:46;11.02;;;10.02;;
75320;SDS011;68337;52.196;5.660;2023-05-07T03:51:11;13.30;;;11.77;;
75320;SDS011;68337;52.196;5.660;2023-05-07T03:53:37;13.30;;;11.25;;
75320;SDS011;68337;52.196;5.660;2023-05-07T03:56:03;12.23;;;11.00;;
75320;SDS011;68337;52.196;5.660;2023-05-07T03:58:29;14.15;;;12.65;;
75320;SDS011;68337;52.196;5.660;2023-05-07T04:00:54;13.75;;;12.52;;
75320;SDS011;68337;52.196;5.660;2023-05-07T04:03:20;14.57;;;13.02;;
75320;SDS011;68337;52.196;5.660;2023-05-07T04:05:46;15.13;;;13.73;;
75320;SDS011;68337;52.196;5.660;2023-05-07T04:08:12;17.25;;;15.20;;
75320;SDS011;68337;52.196;5.660;2023-05-07T04:10:37;16.50;;;14.88;;
75320;SDS011;68337;52.196;5.660;2023-05-07T04:13:03;16.42;;;14.73;;
75320;SDS011;68337;52.196;5.660;2023-05-07T04:15:29;18.40;;;16.58;;
75320;SDS011;68337;52.196;5.660;2023-05-07T04:17:54;18.23;;;16.42;;
75320;SDS011;68337;52.196;5.660;2023-05-07T04:20:20;18.60;;;16.80;;
75320;SDS011;68337;52.196;5.660;2023-05-07T04:22:46;21.80;;;17.50;;
75320;SDS011;68337;52.196;5.660;2023-05-07T04:25:11;20.27;;;18.17;;
75320;SDS011;68337;52.196;5.660;2023-05-07T04:27:37;20.98;;;18.75;;
75320;SDS011;68337;52.196;5.660;2023-05-07T04:30:03;19.55;;;17.75;;
75320;SDS011;68337;52.196;5.660;2023-05-07T04:32:29;21.55;;;18.73;;
75320;SDS011;68337;52.196;5.660;2023-05-07T04:34:58;19.83;;;17.85;;
75320;SDS011;68337;52.196;5.660;2023-05-07T04:37:24;20.45;;;18.17;;
75320;SDS011;68337;52.196;5.660;2023-05-07T04:39:51;22.17;;;19.38;;
75320;SDS011;68337;52.196;5.660;2023-05-07T04:42:17;22.58;;;20.10;;
75320;SDS011;68337;52.196;5.660;2023-05-07T04:44:43;24.60;;;22.02;;
75320;SDS011;68337;52.196;5.660;2023-05-07T04:47:10;27.35;;;21.48;;
75320;SDS011;68337;52.196;5.660;2023-05-07T04:49:36;23.52;;;20.92;;
75320;SDS011;68337;52.196;5.660;2023-05-07T04:52:03;22.85;;;19.55;;
75320;SDS011;68337;52.196;5.660;2023-05-07T04:54:29;24.00;;;21.50;;
75320;SDS011;68337;52.196;5.660;2023-05-07T04:56:54;22.25;;;19.85;;
75320;SDS011;68337;52.196;5.660;2023-05-07T04:59:20;23.02;;;20.63;;
75320;SDS011;68337;52.196;5.660;2023-05-07T05:01:46;23.60;;;21.13;;
75320;SDS011;68337;52.196;5.660;2023-05-07T05:04:12;24.23;;;21.23;;
75320;SDS011;68337;52.196;5.660;2023-05-07T05:06:38;22.70;;;20.27;;
75320;SDS011;68337;52.196;5.660;2023-05-07T05:09:04;22.20;;;19.90;;
75320;SDS011;68337;52.196;5.660;2023-05-07T05:11:30;24.70;;;22.10;;
75320;SDS011;68337;52.196;5.660;2023-05-07T05:13:56;26.52;;;20.90;;
75320;SDS011;68337;52.196;5.660;2023-05-07T05:16:22;24.67;;;22.05;;
75320;SDS011;68337;52.196;5.660;2023-05-07T05:18:47;24.02;;;21.42;;
75320;SDS011;68337;52.196;5.660;2023-05-07T05:21:13;23.77;;;21.17;;
75320;SDS011;68337;52.196;5.660;2023-05-07T05:23:39;22.95;;;20.55;;
75320;SDS011;68337;52.196;5.660;2023-05-07T05:26:05;26.08;;;23.38;;
75320;SDS011;68337;52.196;5.660;2023-05-07T05:28:30;24.60;;;22.00;;
75320;SDS011;68337;52.196;5.660;2023-05-07T05:30:56;27.55;;;24.65;;
75320;SDS011;68337;52.196;5.660;2023-05-07T05:33:22;24.00;;;21.65;;
75320;SDS011;68337;52.196;5.660;2023-05-07T05:35:49;25.02;;;22.52;;
75320;SDS011;68337;52.196;5.660;2023-05-07T05:38:14;26.40;;;23.70;;
75320;SDS011;68337;52.196;5.660;2023-05-07T05:40:40;25.70;;;22.45;;
75320;SDS011;68337;52.196;5.660;2023-05-07T05:43:06;27.10;;;24.17;;
75320;SDS011;68337;52.196;5.660;2023-05-07T05:45:32;26.70;;;24.10;;
75320;SDS011;68337;52.196;5.660;2023-05-07T05:47:57;30.08;;;25.40;;
75320;SDS011;68337;52.196;5.660;2023-05-07T05:50:23;25.55;;;22.80;;
75320;SDS011;68337;52.196;5.660;2023-05-07T05:52:49;31.35;;;26.00;;
75320;SDS011;68337;52.196;5.660;2023-05-07T05:55:15;31.85;;;26.35;;
75320;SDS011;68337;52.196;5.660;2023-05-07T05:57:41;27.30;;;24.45;;
75320;SDS011;68337;52.196;5.660;2023-05-07T06:00:07;27.38;;;24.55;;
75320;SDS011;68337;52.196;5.660;2023-05-07T06:02:33;27.05;;;24.13;;
75320;SDS011;68337;52.196;5.660;2023-05-07T06:04:59;27.42;;;24.63;;
75320;SDS011;68337;52.196;5.660;2023-05-07T06:07:25;29.45;;;25.90;;
75320;SDS011;68337;52.196;5.660;2023-05-07T06:09:50;28.55;;;25.55;;
75320;SDS011;68337;52.196;5.660;2023-05-07T06:12:16;28.48;;;25.10;;
75320;SDS011;68337;52.196;5.660;2023-05-07T06:14:45;28.20;;;25.15;;
75320;SDS011;68337;52.196;5.660;2023-05-07T06:17:10;29.55;;;24.83;;
75320;SDS011;68337;52.196;5.660;2023-05-07T06:19:36;28.88;;;25.77;;
75320;SDS011;68337;52.196;5.660;2023-05-07T06:22:02;27.38;;;24.65;;
75320;SDS011;68337;52.196;5.660;2023-05-07T06:24:28;26.88;;;23.75;;
75320;SDS011;68337;52.196;5.660;2023-05-07T06:26:55;29.10;;;26.05;;
75320;SDS011;68337;52.196;5.660;2023-05-07T06:29:21;28.88;;;25.88;;
75320;SDS011;68337;52.196;5.660;2023-05-07T06:31:47;27.92;;;24.98;;
75320;SDS011;68337;52.196;5.660;2023-05-07T06:34:12;26.95;;;24.27;;
75320;SDS011;68337;52.196;5.660;2023-05-07T06:36:41;27.95;;;24.88;;
75320;SDS011;68337;52.196;5.660;2023-05-07T06:39:06;27.40;;;23.80;;
75320;SDS011;68337;52.196;5.660;2023-05-07T06:41:32;25.85;;;23.35;;
75320;SDS011;68337;52.196;5.660;2023-05-07T06:43:59;26.70;;;23.83;;
75320;SDS011;68337;52.196;5.660;2023-05-07T06:46:25;25.45;;;22.95;;
75320;SDS011;68337;52.196;5.660;2023-05-07T06:48:50;25.67;;;22.95;;
75320;SDS011;68337;52.196;5.660;2023-05-07T06:51:17;26.77;;;24.02;;
75320;SDS011;68337;52.196;5.660;2023-05-07T06:53:43;28.27;;;24.45;;
75320;SDS011;68337;52.196;5.660;2023-05-07T06:56:08;27.63;;;24.70;;
75320;SDS011;68337;52.196;5.660;2023-05-07T06:58:34;27.55;;;24.80;;
75320;SDS011;68337;52.196;5.660;2023-05-07T07:01:00;27.23;;;24.45;;
75320;SDS011;68337;52.196;5.660;2023-05-07T07:03:26;28.75;;;25.75;;
75320;SDS011;68337;52.196;5.660;2023-05-07T07:05:52;25.75;;;23.00;;
75320;SDS011;68337;52.196;5.660;2023-05-07T07:08:18;25.58;;;22.50;;
75320;SDS011;68337;52.196;5.660;2023-05-07T07:10:46;25.00;;;22.48;;
75320;SDS011;68337;52.196;5.660;2023-05-07T07:13:14;23.05;;;20.70;;
75320;SDS011;68337;52.196;5.660;2023-05-07T07:15:40;24.33;;;21.38;;
75320;SDS011;68337;52.196;5.660;2023-05-07T07:18:06;24.15;;;21.73;;
75320;SDS011;68337;52.196;5.660;2023-05-07T07:20:32;23.25;;;20.83;;
75320;SDS011;68337;52.196;5.660;2023-05-07T07:22:58;23.17;;;20.77;;
75320;SDS011;68337;52.196;5.660;2023-05-07T07:25:24;23.15;;;20.25;;
75320;SDS011;68337;52.196;5.660;2023-05-07T07:27:50;22.58;;;20.25;;
75320;SDS011;68337;52.196;5.660;2023-05-07T07:30:16;20.80;;;18.52;;
75320;SDS011;68337;52.196;5.660;2023-05-07T07:32:41;22.45;;;19.95;;
75320;SDS011;68337;52.196;5.660;2023-05-07T07:35:07;21.42;;;19.23;;
75320;SDS011;68337;52.196;5.660;2023-05-07T07:37:34;21.05;;;18.95;;
75320;SDS011;68337;52.196;5.660;2023-05-07T07:40:03;23.33;;;20.83;;
75320;SDS011;68337;52.196;5.660;2023-05-07T07:42:30;22.83;;;20.45;;
75320;SDS011;68337;52.196;5.660;2023-05-07T07:44:55;22.85;;;20.40;;
75320;SDS011;68337;52.196;5.660;2023-05-07T07:47:22;23.05;;;20.55;;
75320;SDS011;68337;52.196;5.660;2023-05-07T07:49:48;22.88;;;20.50;;
75320;SDS011;68337;52.196;5.660;2023-05-07T07:52:14;23.05;;;20.58;;
75320;SDS011;68337;52.196;5.660;2023-05-07T07:54:40;24.00;;;21.42;;
75320;SDS011;68337;52.196;5.660;2023-05-07T07:57:06;24.75;;;22.17;;
75320;SDS011;68337;52.196;5.660;2023-05-07T07:59:32;24.98;;;22.17;;
75320;SDS011;68337;52.196;5.660;2023-05-07T08:01:57;22.25;;;20.05;;
75320;SDS011;68337;52.196;5.660;2023-05-07T08:04:23;28.92;;;22.10;;
75320;SDS011;68337;52.196;5.660;2023-05-07T08:06:49;27.42;;;22.60;;
75320;SDS011;68337;52.196;5.660;2023-05-07T08:09:15;25.13;;;22.17;;
75320;SDS011;68337;52.196;5.660;2023-05-07T08:11:41;24.50;;;21.40;;
75320;SDS011;68337;52.196;5.660;2023-05-07T08:14:07;25.25;;;21.85;;
75320;SDS011;68337;52.196;5.660;2023-05-07T08:16:34;27.65;;;21.58;;
75320;SDS011;68337;52.196;5.660;2023-05-07T08:18:59;24.23;;;21.63;;
75320;SDS011;68337;52.196;5.660;2023-05-07T08:21:25;26.25;;;23.10;;
75320;SDS011;68337;52.196;5.660;2023-05-07T08:23:51;27.65;;;22.45;;
75320;SDS011;68337;52.196;5.660;2023-05-07T08:26:17;22.77;;;19.70;;
75320;SDS011;68337;52.196;5.660;2023-05-07T08:28:43;24.17;;;21.67;;
75320;SDS011;68337;52.196;5.660;2023-05-07T08:31:14;25.05;;;21.05;;
75320;SDS011;68337;52.196;5.660;2023-05-07T08:33:40;20.50;;;18.40;;
75320;SDS011;68337;52.196;5.660;2023-05-07T08:36:06;21.58;;;19.48;;
75320;SDS011;68337;52.196;5.660;2023-05-07T08:38:31;20.33;;;18.27;;
75320;SDS011;68337;52.196;5.660;2023-05-07T08:40:57;22.85;;;20.48;;
75320;SDS011;68337;52.196;5.660;2023-05-07T08:43:24;23.88;;;21.23;;
75320;SDS011;68337;52.196;5.660;2023-05-07T08:45:53;24.55;;;21.83;;
75320;SDS011;68337;52.196;5.660;2023-05-07T08:48:21;25.58;;;22.40;;
75320;SDS011;68337;52.196;5.660;2023-05-07T08:50:50;26.70;;;22.58;;
75320;SDS011;68337;52.196;5.660;2023-05-07T08:53:16;30.30;;;22.88;;
75320;SDS011;68337;52.196;5.660;2023-05-07T08:55:42;26.27;;;23.48;;
75320;SDS011;68337;52.196;5.660;2023-05-07T08:58:08;24.15;;;21.60;;
75320;SDS011;68337;52.196;5.660;2023-05-07T09:00:35;25.38;;;22.35;;
75320;SDS011;68337;52.196;5.660;2023-05-07T09:03:05;24.85;;;22.15;;
75320;SDS011;68337;52.196;5.660;2023-05-07T09:05:32;23.40;;;20.25;;
75320;SDS011;68337;52.196;5.660;2023-05-07T09:08:05;25.70;;;22.42;;
75320;SDS011;68337;52.196;5.660;2023-05-07T09:10:33;23.38;;;20.85;;
75320;SDS011;68337;52.196;5.660;2023-05-07T09:12:59;23.05;;;20.63;;
75320;SDS011;68337;52.196;5.660;2023-05-07T09:15:26;29.10;;;24.70;;
75320;SDS011;68337;52.196;5.660;2023-05-07T09:17:53;23.02;;;20.63;;
75320;SDS011;68337;52.196;5.660;2023-05-07T09:20:18;28.42;;;23.02;;
75320;SDS011;68337;52.196;5.660;2023-05-07T09:22:44;27.83;;;23.15;;
75320;SDS011;68337;52.196;5.660;2023-05-07T09:25:11;25.98;;;22.35;;
75320;SDS011;68337;52.196;5.660;2023-05-07T09:27:37;26.23;;;23.55;;
75320;SDS011;68337;52.196;5.660;2023-05-07T09:30:06;25.25;;;22.63;;
75320;SDS011;68337;52.196;5.660;2023-05-07T09:32:35;25.05;;;22.38;;
75320;SDS011;68337;52.196;5.660;2023-05-07T09:35:03;25.33;;;22.73;;
75320;SDS011;68337;52.196;5.660;2023-05-07T09:37:30;25.92;;;23.20;;
75320;SDS011;68337;52.196;5.660;2023-05-07T09:39:56;25.88;;;22.10;;
75320;SDS011;68337;52.196;5.660;2023-05-07T09:42:23;25.63;;;22.08;;
75320;SDS011;68337;52.196;5.660;2023-05-07T09:44:51;25.50;;;20.98;;
75320;SDS011;68337;52.196;5.660;2023-05-07T09:47:18;24.10;;;21.45;;
75320;SDS011;68337;52.196;5.660;2023-05-07T09:49:46;23.02;;;20.55;;
75320;SDS011;68337;52.196;5.660;2023-05-07T09:52:13;22.42;;;20.13;;
75320;SDS011;68337;52.196;5.660;2023-05-07T09:54:39;23.45;;;20.65;;
75320;SDS011;68337;52.196;5.660;2023-05-07T09:57:09;21.80;;;19.48;;
75320;SDS011;68337;52.196;5.660;2023-05-07T09:59:37;20.77;;;18.60;;
75320;SDS011;68337;52.196;5.660;2023-05-07T10:02:04;23.73;;;20.70;;
75320;SDS011;68337;52.196;5.660;2023-05-07T10:04:31;21.90;;;19.17;;
75320;SDS011;68337;52.196;5.660;2023-05-07T10:06:57;23.02;;;20.50;;
75320;SDS011;68337;52.196;5.660;2023-05-07T10:09:25;23.40;;;19.33;;
75320;SDS011;68337;52.196;5.660;2023-05-07T10:11:51;23.95;;;20.67;;
75320;SDS011;68337;52.196;5.660;2023-05-07T10:14:19;22.67;;;18.75;;
75320;SDS011;68337;52.196;5.660;2023-05-07T10:16:46;22.15;;;19.85;;
75320;SDS011;68337;52.196;5.660;2023-05-07T10:19:13;21.13;;;18.55;;
75320;SDS011;68337;52.196;5.660;2023-05-07T10:21:42;22.33;;;19.63;;
75320;SDS011;68337;52.196;5.660;2023-05-07T10:24:18;24.73;;;21.85;;
75320;SDS011;68337;52.196;5.660;2023-05-07T10:26:47;23.83;;;21.25;;
75320;SDS011;68337;52.196;5.660;2023-05-07T10:34:28;22.98;;;20.42;;
75320;SDS011;68337;52.196;5.660;2023-05-07T10:37:00;23.90;;;21.30;;
75320;SDS011;68337;52.196;5.660;2023-05-07T10:39:26;22.75;;;19.83;;
75320;SDS011;68337;52.196;5.660;2023-05-07T10:41:52;23.70;;;21.30;;
75320;SDS011;68337;52.196;5.660;2023-05-07T10:44:24;22.77;;;19.83;;
75320;SDS011;68337;52.196;5.660;2023-05-07T10:47:04;23.00;;;20.58;;
75320;SDS011;68337;52.196;5.660;2023-05-07T10:49:37;21.58;;;19.23;;
75320;SDS011;68337;52.196;5.660;2023-05-07T10:54:42;21.35;;;18.98;;
75320;SDS011;68337;52.196;5.660;2023-05-07T10:59:56;21.00;;;18.85;;
75320;SDS011;68337;52.196;5.660;2023-05-07T11:02:22;21.58;;;19.23;;
75320;SDS011;68337;52.196;5.660;2023-05-07T11:07:54;20.25;;;18.15;;
75320;SDS011;68337;52.196;5.660;2023-05-07T11:10:21;19.15;;;17.15;;
75320;SDS011;68337;52.196;5.660;2023-05-07T11:12:48;18.33;;;16.60;;
75320;SDS011;68337;52.196;5.660;2023-05-07T11:18:04;18.52;;;16.35;;
75320;SDS011;68337;52.196;5.660;2023-05-07T11:20:50;16.92;;;15.02;;
75320;SDS011;68337;52.196;5.660;2023-05-07T11:26:00;17.85;;;14.18;;
75320;SDS011;68337;52.196;5.660;2023-05-07T11:28:36;16.83;;;13.80;;
75320;SDS011;68337;52.196;5.660;2023-05-07T11:31:02;15.90;;;14.00;;
75320;SDS011;68337;52.196;5.660;2023-05-07T11:33:29;16.13;;;14.45;;
75320;SDS011;68337;52.196;5.660;2023-05-07T11:35:55;13.82;;;12.48;;
75320;SDS011;68337;52.196;5.660;2023-05-07T11:38:22;16.58;;;14.38;;
75320;SDS011;68337;52.196;5.660;2023-05-07T11:40:51;13.68;;;12.25;;
75320;SDS011;68337;52.196;5.660;2023-05-07T11:43:29;16.52;;;14.18;;
75320;SDS011;68337;52.196;5.660;2023-05-07T11:45:54;16.85;;;14.52;;
75320;SDS011;68337;52.196;5.660;2023-05-07T11:48:29;16.95;;;15.20;;
75320;SDS011;68337;52.196;5.660;2023-05-07T11:53:27;16.52;;;14.77;;
75320;SDS011;68337;52.196;5.660;2023-05-07T11:55:59;15.05;;;13.55;;
75320;SDS011;68337;52.196;5.660;2023-05-07T11:58:26;16.33;;;14.75;;
75320;SDS011;68337;52.196;5.660;2023-05-07T12:00:52;15.68;;;14.05;;
75320;SDS011;68337;52.196;5.660;2023-05-07T12:03:18;18.70;;;16.70;;
75320;SDS011;68337;52.196;5.660;2023-05-07T12:05:45;14.27;;;12.77;;
75320;SDS011;68337;52.196;5.660;2023-05-07T12:08:18;15.60;;;13.95;;
75320;SDS011;68337;52.196;5.660;2023-05-07T12:10:44;15.25;;;13.63;;
75320;SDS011;68337;52.196;5.660;2023-05-07T12:13:19;16.40;;;13.63;;
75320;SDS011;68337;52.196;5.660;2023-05-07T12:15:48;14.60;;;13.27;;
75320;SDS011;68337;52.196;5.660;2023-05-07T12:18:20;16.33;;;13.65;;
75320;SDS011;68337;52.196;5.660;2023-05-07T12:20:48;15.05;;;13.50;;
75320;SDS011;68337;52.196;5.660;2023-05-07T12:23:15;16.05;;;14.35;;
75320;SDS011;68337;52.196;5.660;2023-05-07T12:25:42;15.75;;;14.02;;
75320;SDS011;68337;52.196;5.660;2023-05-07T12:28:16;13.82;;;12.27;;
75320;SDS011;68337;52.196;5.660;2023-05-07T12:30:43;14.57;;;13.05;;
75320;SDS011;68337;52.196;5.660;2023-05-07T12:33:11;15.05;;;13.45;;
75320;SDS011;68337;52.196;5.660;2023-05-07T12:35:43;15.23;;;13.50;;
75320;SDS011;68337;52.196;5.660;2023-05-07T12:38:13;16.65;;;14.90;;
75320;SDS011;68337;52.196;5.660;2023-05-07T12:43:14;13.60;;;12.20;;
75320;SDS011;68337;52.196;5.660;2023-05-07T12:45:50;15.30;;;13.38;;
75320;SDS011;68337;52.196;5.660;2023-05-07T12:48:16;15.25;;;13.60;;
75320;SDS011;68337;52.196;5.660;2023-05-07T12:50:42;13.57;;;12.25;;
75320;SDS011;68337;52.196;5.660;2023-05-07T12:53:10;17.75;;;13.35;;
75320;SDS011;68337;52.196;5.660;2023-05-07T12:55:41;16.40;;;13.60;;
75320;SDS011;68337;52.196;5.660;2023-05-07T12:58:18;17.98;;;14.25;;
75320;SDS011;68337;52.196;5.660;2023-05-07T13:00:50;14.98;;;12.35;;
75320;SDS011;68337;52.196;5.660;2023-05-07T13:03:26;17.67;;;14.82;;
75320;SDS011;68337;52.196;5.660;2023-05-07T13:05:58;18.23;;;15.85;;
75320;SDS011;68337;52.196;5.660;2023-05-07T13:08:31;14.80;;;13.27;;
75320;SDS011;68337;52.196;5.660;2023-05-07T13:11:10;17.70;;;14.88;;
75320;SDS011;68337;52.196;5.660;2023-05-07T13:13:38;14.88;;;12.98;;
75320;SDS011;68337;52.196;5.660;2023-05-07T13:16:05;16.73;;;13.32;;
75320;SDS011;68337;52.196;5.660;2023-05-07T13:18:33;15.82;;;14.18;;
75320;SDS011;68337;52.196;5.660;2023-05-07T13:20:59;15.90;;;13.90;;
75320;SDS011;68337;52.196;5.660;2023-05-07T13:23:26;14.73;;;13.15;;
75320;SDS011;68337;52.196;5.660;2023-05-07T13:25:52;13.82;;;12.43;;
75320;SDS011;68337;52.196;5.660;2023-05-07T13:28:21;17.00;;;12.60;;
75320;SDS011;68337;52.196;5.660;2023-05-07T13:30:47;13.23;;;11.88;;
75320;SDS011;68337;52.196;5.660;2023-05-07T13:33:13;16.52;;;12.05;;
75320;SDS011;68337;52.196;5.660;2023-05-07T13:35:41;12.70;;;11.15;;
75320;SDS011;68337;52.196;5.660;2023-05-07T13:38:06;14.52;;;10.82;;
75320;SDS011;68337;52.196;5.660;2023-05-07T13:40:33;13.00;;;10.30;;
75320;SDS011;68337;52.196;5.660;2023-05-07T13:42:58;13.57;;;11.07;;
75320;SDS011;68337;52.196;5.660;2023-05-07T13:45:27;12.98;;;10.80;;
75320;SDS011;68337;52.196;5.660;2023-05-07T13:47:56;14.48;;;11.82;;
75320;SDS011;68337;52.196;5.660;2023-05-07T13:50:22;13.40;;;11.95;;
75320;SDS011;68337;52.196;5.660;2023-05-07T13:52:48;13.82;;;12.50;;
75320;SDS011;68337;52.196;5.660;2023-05-07T13:55:17;13.35;;;11.95;;
75320;SDS011;68337;52.196;5.660;2023-05-07T13:57:43;14.05;;;12.65;;
75320;SDS011;68337;52.196;5.660;2023-05-07T14:00:09;14.13;;;12.07;;
75320;SDS011;68337;52.196;5.660;2023-05-07T14:02:35;17.25;;;12.45;;
75320;SDS011;68337;52.196;5.660;2023-05-07T14:05:01;14.15;;;12.85;;
75320;SDS011;68337;52.196;5.660;2023-05-07T14:07:27;15.93;;;13.00;;
75320;SDS011;68337;52.196;5.660;2023-05-07T14:09:53;13.98;;;12.23;;
75320;SDS011;68337;52.196;5.660;2023-05-07T14:12:19;15.30;;;13.55;;
75320;SDS011;68337;52.196;5.660;2023-05-07T14:14:45;12.93;;;11.52;;
75320;SDS011;68337;52.196;5.660;2023-05-07T14:17:12;13.52;;;11.65;;
75320;SDS011;68337;52.196;5.660;2023-05-07T14:19:38;12.77;;;11.45;;
75320;SDS011;68337;52.196;5.660;2023-05-07T14:22:03;11.55;;;10.35;;
75320;SDS011;68337;52.196;5.660;2023-05-07T14:24:29;12.18;;;10.45;;
75320;SDS011;68337;52.196;5.660;2023-05-07T14:26:55;13.65;;;12.25;;
75320;SDS011;68337;52.196;5.660;2023-05-07T14:29:21;20.92;;;13.55;;
75320;SDS011;68337;52.196;5.660;2023-05-07T14:31:47;13.52;;;11.32;;
75320;SDS011;68337;52.196;5.660;2023-05-07T14:34:13;13.90;;;11.77;;
75320;SDS011;68337;52.196;5.660;2023-05-07T14:36:39;19.80;;;15.75;;
75320;SDS011;68337;52.196;5.660;2023-05-07T14:39:04;15.73;;;14.10;;
75320;SDS011;68337;52.196;5.660;2023-05-07T14:41:31;17.55;;;14.48;;
75320;SDS011;68337;52.196;5.660;2023-05-07T14:43:58;13.85;;;12.45;;
75320;SDS011;68337;52.196;5.660;2023-05-07T14:46:24;12.63;;;11.30;;
75320;SDS011;68337;52.196;5.660;2023-05-07T14:48:50;14.48;;;12.82;;